Sharm el Sheikh, Egypt
Current Conditions -  °F | °C
As of 12:00 PM on Monday 22 Dec 2014 (Local Time) from HESH Reporting Station
Clear Clear  
Wind Chill: 73°   Ceiling: Unl
Heat Index: 73°   Visibility: 6mi
Dew Point: 48°   Wind: 18mph
Humidity: 41%   Direction: 30°NNE
Pressure: 30"   Gusts: NA
Location:  27.98°N, 34.39°E
Report Text: HESH 221000Z 03016KT CAVOK 23/09 Q1016 NOSIG
Loading
Personal Weather Stations






























Interactive Weather Map New forecast layout! Learn more

10-Day Weather Forecast

Advertisements
Track Severe Weather on mobile